createdAt,value
2016-10-22T00:01:09.861Z,0
2016-10-22T00:02:19.871Z,0
2016-10-22T00:03:30.206Z,0
2016-10-22T00:04:40.212Z,0
2016-10-22T00:05:50.505Z,0
2016-10-22T00:07:00.410Z,0
2016-10-22T00:08:10.703Z,0
2016-10-22T00:09:20.687Z,0
2016-10-22T00:10:30.671Z,0
2016-10-22T00:11:40.663Z,0
2016-10-22T00:12:50.960Z,0
2016-10-22T00:14:00.948Z,0
2016-10-22T00:15:10.968Z,0
2016-10-22T00:16:21.268Z,0
2016-10-22T00:17:31.610Z,0
2016-10-22T00:18:41.922Z,0
2016-10-22T00:19:51.904Z,0
2016-10-22T00:21:02.205Z,0
2016-10-22T00:22:12.502Z,0
2016-10-22T00:23:22.838Z,0
2016-10-22T00:24:32.819Z,0
2016-10-22T00:25:43.130Z,0
2016-10-22T00:26:53.127Z,0
2016-10-22T00:28:03.451Z,0
2016-10-22T00:29:13.753Z,0
2016-10-22T00:30:24.046Z,0
2016-10-22T00:31:34.330Z,0
2016-10-22T00:32:44.662Z,0
2016-10-22T00:33:54.949Z,0
2016-10-22T00:35:04.926Z,0
2016-10-22T00:36:15.212Z,0
2016-10-22T00:37:25.179Z,0
2016-10-22T00:38:35.460Z,0
2016-10-22T00:39:45.727Z,0
2016-10-22T00:40:56.010Z,0
2016-10-22T00:42:06.304Z,0
2016-10-22T00:43:16.607Z,0
2016-10-22T00:44:26.596Z,0
2016-10-22T00:45:36.878Z,0
2016-10-22T00:46:47.157Z,0
2016-10-22T00:47:57.440Z,0
2016-10-22T00:49:07.722Z,0
2016-10-22T00:50:17.697Z,0
2016-10-22T00:51:27.372Z,0
2016-10-22T00:52:37.692Z,0
2016-10-22T00:53:47.972Z,0
2016-10-22T00:54:57.639Z,0
2016-10-22T00:56:07.916Z,0
2016-10-22T00:57:17.883Z,0
2016-10-22T00:58:28.180Z,0
2016-10-22T00:59:38.537Z,0
2016-10-22T01:00:48.827Z,0
2016-10-22T01:01:59.114Z,0
2016-10-22T01:03:09.401Z,0
2016-10-22T01:04:19.374Z,0
2016-10-22T01:05:29.650Z,0
2016-10-22T01:06:39.612Z,0
2016-10-22T01:07:49.619Z,0
2016-10-22T01:08:59.900Z,0
2016-10-22T01:10:10.220Z,0
2016-10-22T01:11:19.597Z,0
2016-10-22T01:12:29.572Z,0
2016-10-22T01:13:38.940Z,0
2016-10-22T01:14:48.913Z,0
2016-10-22T01:15:58.883Z,0
2016-10-22T01:17:09.161Z,0
2016-10-22T01:18:19.482Z,0
2016-10-22T01:19:29.764Z,0
2016-10-22T01:20:39.743Z,0
2016-10-22T01:21:49.713Z,0
2016-10-22T01:23:00.000Z,0
2016-10-22T01:24:10.280Z,0
2016-10-22T01:25:20.247Z,0
2016-10-22T01:26:30.519Z,0
2016-10-22T01:27:40.486Z,0
2016-10-22T01:28:50.752Z,0
2016-10-22T01:30:01.041Z,0
2016-10-22T01:31:11.326Z,0
2016-10-22T01:32:21.632Z,0
2016-10-22T01:33:31.949Z,0
2016-10-22T01:34:42.233Z,0
2016-10-22T01:35:52.517Z,0
2016-10-22T01:37:01.874Z,0
2016-10-22T01:38:12.162Z,0
2016-10-22T01:39:22.451Z,0
2016-10-22T01:40:32.424Z,0
2016-10-22T01:41:42.701Z,0
2016-10-22T01:42:52.992Z,0
2016-10-22T01:44:02.957Z,0
2016-10-22T01:45:13.254Z,0
2016-10-22T01:46:23.538Z,0
2016-10-22T01:47:33.851Z,0
2016-10-22T01:48:43.826Z,0
2016-10-22T01:49:54.101Z,0
2016-10-22T01:51:04.109Z,0
2016-10-22T01:52:14.395Z,0
2016-10-22T01:53:24.673Z,0
2016-10-22T01:54:34.638Z,0
2016-10-22T01:55:44.914Z,0
2016-10-22T01:56:55.186Z,0
2016-10-22T01:58:05.469Z,0
2016-10-22T01:59:15.755Z,0
2016-10-22T02:00:26.061Z,0
2016-10-22T02:01:36.342Z,0
2016-10-22T02:02:46.674Z,0
2016-10-22T02:03:56.968Z,0
2016-10-22T02:05:07.252Z,0
2016-10-22T02:06:17.235Z,0
2016-10-22T02:07:27.526Z,0
2016-10-22T02:08:37.798Z,0
2016-10-22T02:09:47.466Z,0
2016-10-22T02:10:57.762Z,0
2016-10-22T02:12:08.043Z,0
2016-10-22T02:13:18.339Z,0
2016-10-22T02:14:28.621Z,0
2016-10-22T02:15:38.597Z,0
2016-10-22T02:16:48.899Z,0
2016-10-22T02:17:58.871Z,0
2016-10-22T02:19:09.179Z,0
2016-10-22T02:20:18.854Z,0
2016-10-22T02:21:28.830Z,0
2016-10-22T02:22:38.824Z,0
2016-10-22T02:23:49.109Z,0
2016-10-22T02:24:59.425Z,0
2016-10-22T02:26:09.717Z,0
2016-10-22T02:27:19.994Z,0
2016-10-22T02:28:29.966Z,0
2016-10-22T02:29:40.305Z,0
2016-10-22T02:30:50.583Z,0
2016-10-22T02:32:00.616Z,0
2016-10-22T02:33:10.895Z,0
2016-10-22T02:34:20.868Z,0
2016-10-22T02:35:30.877Z,0
2016-10-22T02:36:40.852Z,0
2016-10-22T02:37:50.829Z,0
2016-10-22T02:39:01.110Z,0
2016-10-22T02:40:11.373Z,0
2016-10-22T02:41:21.687Z,0
2016-10-22T02:42:31.678Z,0
2016-10-22T02:43:41.967Z,0
2016-10-22T02:44:51.948Z,0
2016-10-22T02:46:02.229Z,0
2016-10-22T02:47:12.508Z,0
2016-10-22T02:48:22.468Z,0
2016-10-22T02:49:32.745Z,0
2016-10-22T02:50:43.036Z,0
2016-10-22T02:51:53.313Z,0
2016-10-22T02:53:03.284Z,0
2016-10-22T02:54:13.240Z,0
2016-10-22T02:55:23.204Z,0
2016-10-22T02:56:32.898Z,0
2016-10-22T02:57:42.889Z,0
2016-10-22T02:58:52.842Z,0
2016-10-22T03:00:03.118Z,0
2016-10-22T03:01:13.120Z,0
2016-10-22T03:33:38.487Z,0
2016-10-22T03:34:48.462Z,0
2016-10-22T03:35:58.727Z,0
2016-10-22T03:37:08.712Z,0
2016-10-22T03:38:18.678Z,0
2016-10-22T03:39:28.950Z,0
2016-10-22T03:40:38.951Z,0
2016-10-22T03:41:48.929Z,0
2016-10-22T03:42:59.209Z,0
2016-10-22T03:44:09.485Z,0
2016-10-22T03:45:19.760Z,0
2016-10-22T03:46:30.054Z,0
2016-10-22T03:47:40.334Z,0
2016-10-22T03:48:50.598Z,0
2016-10-22T03:50:00.563Z,0
2016-10-22T03:51:10.833Z,0
2016-10-22T03:52:20.814Z,0
2016-10-22T03:53:31.106Z,0
2016-10-22T03:54:41.382Z,0
2016-10-22T03:55:51.654Z,0
2016-10-22T03:57:01.610Z,0
2016-10-22T03:58:11.304Z,0
2016-10-22T03:59:21.281Z,0
2016-10-22T04:00:31.255Z,0
2016-10-22T04:01:41.537Z,0
2016-10-22T04:02:51.806Z,0
2016-10-22T04:04:02.086Z,0
2016-10-22T04:05:12.367Z,0
2016-10-22T04:06:22.325Z,0
2016-10-22T04:07:32.632Z,0
2016-10-22T04:08:42.643Z,0
2016-10-22T04:09:52.928Z,0
2016-10-22T04:11:02.931Z,0
2016-10-22T04:12:13.223Z,0
2016-10-22T04:13:23.489Z,0
2016-10-22T04:14:33.466Z,0
2016-10-22T04:15:43.773Z,0
2016-10-22T04:16:54.070Z,0
2016-10-22T04:18:04.062Z,0
2016-10-22T04:19:14.354Z,0
2016-10-22T04:20:24.352Z,0
2016-10-22T04:21:34.328Z,0
2016-10-22T04:22:44.623Z,0
2016-10-22T04:23:54.899Z,0
2016-10-22T04:25:05.176Z,0
2016-10-22T04:26:15.154Z,0
2016-10-22T04:27:25.425Z,0
2016-10-22T04:28:35.390Z,0
2016-10-22T04:29:45.369Z,0
2016-10-22T04:30:55.648Z,0
2016-10-22T04:32:05.923Z,0
2016-10-22T04:33:15.905Z,0
2016-10-22T04:34:26.191Z,0
2016-10-22T04:35:36.164Z,0
2016-10-22T04:36:46.140Z,0
2016-10-22T04:37:56.113Z,0
2016-10-22T04:39:06.401Z,0
2016-10-22T04:40:16.677Z,0
2016-10-22T04:41:26.026Z,0
2016-10-22T04:42:36.020Z,0
2016-10-22T04:43:46.301Z,0
2016-10-22T04:44:56.276Z,0
2016-10-22T04:46:06.558Z,0
2016-10-22T04:47:16.541Z,0
2016-10-22T04:48:26.818Z,0
2016-10-22T04:49:36.810Z,0
2016-10-22T04:50:47.089Z,0
2016-10-22T04:51:57.391Z,0
2016-10-22T04:53:07.665Z,0
2016-10-22T04:54:17.951Z,0
2016-10-22T04:55:28.285Z,0
2016-10-22T04:56:38.260Z,0
2016-10-22T04:57:48.538Z,0
2016-10-22T04:58:58.830Z,0
2016-10-22T05:00:09.107Z,0
2016-10-22T05:01:19.081Z,0
2016-10-22T05:02:29.360Z,0
2016-10-22T05:03:39.641Z,0
2016-10-22T05:04:49.917Z,0
2016-10-22T05:06:00.201Z,0
2016-10-22T05:07:10.476Z,0
2016-10-22T05:08:20.447Z,0
2016-10-22T05:09:30.751Z,0
2016-10-22T05:10:41.057Z,0
2016-10-22T05:11:50.723Z,0
2016-10-22T05:13:01.001Z,0
2016-10-22T05:14:10.977Z,0
2016-10-22T05:15:21.263Z,0
2016-10-22T05:16:31.580Z,0
2016-10-22T05:17:41.867Z,0
2016-10-22T05:18:51.531Z,0
2016-10-22T05:20:01.200Z,0
2016-10-22T05:21:10.865Z,0
2016-10-22T05:22:21.140Z,5
2016-10-22T05:23:31.462Z,5
2016-10-22T05:24:41.754Z,5
2016-10-22T05:25:52.033Z,5
2016-10-22T05:27:01.707Z,5
2016-10-22T05:28:11.668Z,5
2016-10-22T05:29:21.649Z,10
2016-10-22T05:30:31.929Z,10
2016-10-22T05:31:42.253Z,10
2016-10-22T05:32:52.220Z,10
2016-10-22T05:34:01.891Z,15
2016-10-22T05:35:12.185Z,15
2016-10-22T05:36:22.469Z,15
2016-10-22T05:37:32.759Z,15
2016-10-22T05:38:43.032Z,20
2016-10-22T05:39:53.011Z,20
2016-10-22T05:41:02.991Z,20
2016-10-22T05:42:12.989Z,25
2016-10-22T05:43:23.295Z,25
2016-10-22T05:44:33.284Z,25
2016-10-22T05:45:43.279Z,25
2016-10-22T05:46:53.247Z,30
2016-10-22T05:48:03.237Z,30
2016-10-22T05:49:13.546Z,30
2016-10-22T05:50:23.516Z,30
2016-10-22T05:51:33.493Z,35
2016-10-22T05:52:43.770Z,35
2016-10-22T05:53:54.058Z,35
2016-10-22T05:55:04.344Z,35
2016-10-22T05:56:14.630Z,40
2016-10-22T05:57:24.916Z,40
2016-10-22T05:58:35.222Z,40
2016-10-22T05:59:45.501Z,45
2016-10-22T06:00:55.781Z,45
2016-10-22T06:02:06.090Z,45
2016-10-22T06:03:16.369Z,45
2016-10-22T06:04:26.642Z,50
2016-10-22T06:05:36.925Z,50
2016-10-22T06:06:47.206Z,50
2016-10-22T06:07:57.186Z,55
2016-10-22T06:09:07.467Z,55
2016-10-22T06:10:17.469Z,55
2016-10-22T06:11:27.138Z,55
2016-10-22T06:12:37.419Z,55
2016-10-22T06:13:47.422Z,55
2016-10-22T06:14:57.721Z,60
2016-10-22T06:16:08.009Z,60
2016-10-22T06:17:18.300Z,60
2016-10-22T06:18:28.277Z,65
2016-10-22T06:19:37.643Z,65
2016-10-22T06:20:47.625Z,65
2016-10-22T06:21:57.917Z,70
2016-10-22T06:23:08.215Z,70
2016-10-22T06:24:18.532Z,75
2016-10-22T06:25:28.827Z,75
2016-10-22T06:26:39.121Z,80
2016-10-22T06:27:49.435Z,80
2016-10-22T06:28:59.727Z,85
2016-10-22T06:30:09.710Z,85
2016-10-22T06:31:20.002Z,90
2016-10-22T06:32:30.287Z,90
2016-10-22T06:33:40.571Z,90
2016-10-22T06:34:50.868Z,90
2016-10-22T06:36:00.857Z,95
2016-10-22T06:37:11.129Z,95
2016-10-22T06:38:21.408Z,95
2016-10-22T06:39:31.933Z,95
2016-10-22T06:40:42.214Z,95
2016-10-22T06:41:52.496Z,95
2016-10-22T06:43:02.795Z,100
2016-10-22T06:44:13.084Z,100
2016-10-22T06:45:23.367Z,100
2016-10-22T06:46:33.657Z,100
2016-10-22T06:47:43.985Z,100
2016-10-22T06:48:54.296Z,100
2016-10-22T06:50:04.274Z,105
2016-10-22T06:51:14.585Z,100
2016-10-22T06:52:24.891Z,105
2016-10-22T06:53:35.208Z,105
2016-10-22T06:54:45.505Z,105
2016-10-22T06:55:55.787Z,105
2016-10-22T06:57:05.747Z,115
2016-10-22T06:58:16.039Z,110
2016-10-22T06:59:26.325Z,115
2016-10-22T07:00:36.619Z,110
2016-10-22T07:01:46.910Z,115
2016-10-22T07:02:56.889Z,110
2016-10-22T07:04:06.553Z,110
2016-10-22T07:05:16.836Z,110
2016-10-22T07:06:27.141Z,105
2016-10-22T07:07:37.421Z,105
2016-10-22T07:08:47.701Z,100
2016-10-22T07:09:57.977Z,95
2016-10-22T07:11:07.959Z,90
2016-10-22T07:12:18.241Z,90
2016-10-22T07:13:28.217Z,95
2016-10-22T07:14:38.510Z,100
2016-10-22T07:15:48.826Z,100
2016-10-22T07:16:59.116Z,100
2016-10-22T07:18:09.408Z,110
2016-10-22T07:19:19.696Z,110
2016-10-22T07:20:29.375Z,110
2016-10-22T07:21:39.669Z,95
2016-10-22T07:22:49.664Z,100
2016-10-22T07:23:59.666Z,105
2016-10-22T07:25:09.948Z,105
2016-10-22T07:26:20.244Z,95
2016-10-22T07:27:30.528Z,100
2016-10-22T07:28:40.503Z,120
2016-10-22T07:29:50.199Z,120
2016-10-22T07:30:59.881Z,125
2016-10-22T07:32:10.202Z,130
2016-10-22T07:33:20.190Z,135
2016-10-22T07:34:30.146Z,140
2016-10-22T07:35:40.424Z,140
2016-10-22T07:36:50.709Z,140
2016-10-22T07:38:00.691Z,140
2016-10-22T07:39:10.353Z,145
2016-10-22T07:40:20.329Z,145
2016-10-22T07:41:30.301Z,145
2016-10-22T07:42:40.593Z,145
2016-10-22T07:43:50.564Z,145
2016-10-22T07:45:00.835Z,145
2016-10-22T07:46:11.127Z,150
2016-10-22T07:47:21.445Z,150
2016-10-22T07:48:31.745Z,150
2016-10-22T07:49:42.065Z,150
2016-10-22T07:50:52.349Z,160
2016-10-22T07:52:02.320Z,160
2016-10-22T07:53:12.597Z,160
2016-10-22T07:54:22.867Z,155
2016-10-22T07:55:33.142Z,155
2016-10-22T07:56:43.110Z,155
2016-10-22T07:57:53.391Z,160
2016-10-22T07:59:03.688Z,160
2016-10-22T08:00:14.014Z,160
2016-10-22T08:01:24.349Z,160
2016-10-22T08:02:34.022Z,160
2016-10-22T08:03:44.002Z,165
2016-10-22T08:04:53.979Z,165
2016-10-22T08:06:04.266Z,165
2016-10-22T08:07:14.253Z,165
2016-10-22T08:08:24.550Z,165
2016-10-22T08:09:34.530Z,170
2016-10-22T08:10:44.818Z,170
2016-10-22T08:11:55.094Z,170
2016-10-22T08:13:05.075Z,170
2016-10-22T08:14:15.043Z,170
2016-10-22T08:15:25.331Z,170
2016-10-22T08:16:35.338Z,170
2016-10-22T08:17:45.618Z,170
2016-10-22T08:18:55.912Z,170
2016-10-22T08:20:06.201Z,170
2016-10-22T08:21:16.488Z,170
2016-10-22T08:22:26.775Z,175
2016-10-22T08:23:37.076Z,175
2016-10-22T08:24:47.358Z,175
2016-10-22T08:25:57.336Z,175
2016-10-22T08:27:07.627Z,175
2016-10-22T08:28:17.905Z,175
2016-10-22T08:29:28.185Z,185
2016-10-22T08:30:38.490Z,180
2016-10-22T08:31:48.785Z,180
2016-10-22T08:32:58.758Z,180
2016-10-22T08:34:09.041Z,185
2016-10-22T08:35:19.031Z,185
2016-10-22T08:36:29.352Z,185
2016-10-22T08:37:39.339Z,190
2016-10-22T08:38:49.640Z,190
2016-10-22T08:39:59.920Z,190
2016-10-22T08:41:09.592Z,195
2016-10-22T08:42:19.883Z,195
2016-10-22T08:43:29.861Z,200
2016-10-22T08:44:40.149Z,205
2016-10-22T08:45:50.430Z,205
2016-10-22T08:47:00.711Z,210
2016-10-22T08:48:11.028Z,215
2016-10-22T08:49:21.007Z,220
2016-10-22T08:50:31.286Z,230
2016-10-22T08:51:41.580Z,230
2016-10-22T08:52:51.874Z,240
2016-10-22T08:54:02.159Z,235
2016-10-22T08:55:12.446Z,240
2016-10-22T08:56:22.415Z,240
2016-10-22T08:57:32.712Z,240
2016-10-22T08:58:42.693Z,240
2016-10-22T08:59:53.021Z,240
2016-10-22T09:01:03.308Z,240
2016-10-22T09:02:13.304Z,240
2016-10-22T09:03:23.599Z,245
2016-10-22T09:04:33.898Z,240
2016-10-22T09:05:43.874Z,240
2016-10-22T09:06:54.246Z,230
2016-10-22T09:08:04.555Z,225
2016-10-22T09:09:19.688Z,220
2016-10-22T09:10:37.863Z,215
2016-10-22T09:11:52.515Z,210
2016-10-22T09:13:03.447Z,210
2016-10-22T09:14:13.459Z,210
2016-10-22T09:15:23.774Z,205
2016-10-22T09:16:33.785Z,210
2016-10-22T09:17:44.380Z,205
2016-10-22T09:18:54.670Z,210
2016-10-22T09:20:04.976Z,210
2016-10-22T09:21:15.271Z,210
2016-10-22T09:22:25.254Z,205
2016-10-22T09:23:35.564Z,210
2016-10-22T09:24:45.875Z,210
2016-10-22T09:25:56.203Z,215
2016-10-22T09:27:06.517Z,215
2016-10-22T09:28:16.871Z,215
2016-10-22T09:29:26.850Z,220
2016-10-22T09:30:36.854Z,215
2016-10-22T09:31:46.881Z,220
2016-10-22T09:32:57.180Z,215
2016-10-22T09:34:07.528Z,215
2016-10-22T09:35:17.541Z,220
2016-10-22T09:36:27.525Z,220
2016-10-22T09:37:37.489Z,215
2016-10-22T09:38:47.477Z,215
2016-10-22T09:39:58.014Z,215
2016-10-22T09:41:08.306Z,215
2016-10-22T09:42:18.285Z,215
2016-10-22T09:43:28.804Z,215
2016-10-22T09:44:39.107Z,220
2016-10-22T09:45:49.407Z,220
2016-10-22T09:46:59.424Z,215
2016-10-22T09:48:09.426Z,215
2016-10-22T09:49:19.707Z,220
2016-10-22T09:50:30.001Z,220
2016-10-22T09:51:39.987Z,220
2016-10-22T09:52:49.993Z,225
2016-10-22T09:54:00.290Z,220
2016-10-22T09:55:10.571Z,220
2016-10-22T09:56:20.547Z,220
2016-10-22T09:57:30.894Z,220
2016-10-22T09:58:40.875Z,220
2016-10-22T09:59:51.297Z,225
2016-10-22T10:01:01.595Z,225
2016-10-22T10:02:11.875Z,225
2016-10-22T10:03:22.171Z,225
2016-10-22T10:04:32.394Z,230
2016-10-22T10:05:42.681Z,225
2016-10-22T10:06:53.376Z,225
2016-10-22T10:08:03.344Z,220
2016-10-22T10:09:13.636Z,225
2016-10-22T10:10:23.922Z,225
2016-10-22T10:11:34.251Z,220
2016-10-22T10:12:44.535Z,225
2016-10-22T10:13:54.837Z,230
2016-10-22T10:15:04.808Z,230
2016-10-22T10:16:15.085Z,230
2016-10-22T10:17:25.381Z,230
2016-10-22T10:18:35.358Z,230
2016-10-22T10:19:45.515Z,220
2016-10-22T10:20:55.808Z,220
2016-10-22T10:22:06.116Z,220
2016-10-22T10:23:16.436Z,225
2016-10-22T10:24:26.736Z,225
2016-10-22T10:25:37.027Z,230
2016-10-22T10:26:47.312Z,225
2016-10-22T10:27:57.601Z,225
2016-10-22T10:29:07.584Z,225
2016-10-22T10:30:17.880Z,225
2016-10-22T10:31:27.863Z,225
2016-10-22T10:32:38.149Z,225
2016-10-22T10:33:48.443Z,220
2016-10-22T10:34:58.729Z,230
2016-10-22T10:36:08.414Z,230
2016-10-22T10:37:18.700Z,230
2016-10-22T10:38:28.989Z,225
2016-10-22T10:39:39.279Z,225
2016-10-22T10:40:49.561Z,225
2016-10-22T10:41:59.548Z,225
2016-10-22T10:43:09.865Z,225
2016-10-22T10:44:19.841Z,225
2016-10-22T10:45:30.147Z,225
2016-10-22T10:46:40.444Z,230
2016-10-22T10:47:50.730Z,220
2016-10-22T10:49:00.705Z,230
2016-10-22T10:50:11.019Z,225
2016-10-22T10:51:20.996Z,230
2016-10-22T10:52:31.283Z,230
2016-10-22T10:53:41.274Z,225
2016-10-22T10:54:51.615Z,230
2016-10-22T10:56:01.903Z,235
2016-10-22T10:57:12.179Z,230
2016-10-22T10:58:22.457Z,235
2016-10-22T10:59:32.744Z,235
2016-10-22T11:00:42.740Z,220
2016-10-22T11:01:53.078Z,220
2016-10-22T11:03:03.405Z,225
2016-10-22T11:04:13.389Z,225
2016-10-22T11:05:23.715Z,240
2016-10-22T11:06:34.013Z,235
2016-10-22T11:07:44.325Z,235
2016-10-22T11:08:54.606Z,240
2016-10-22T11:10:04.898Z,235
2016-10-22T11:11:15.189Z,240
2016-10-22T11:12:25.487Z,235
2016-10-22T11:13:35.457Z,240
2016-10-22T11:14:45.440Z,240
2016-10-22T11:15:55.733Z,240
2016-10-22T11:17:05.714Z,240
2016-10-22T11:18:15.396Z,240
2016-10-22T11:19:25.678Z,245
2016-10-22T11:20:35.980Z,245
2016-10-22T11:21:46.312Z,245
2016-10-22T11:22:56.297Z,255
2016-10-22T11:24:06.607Z,255
2016-10-22T11:25:16.571Z,255
2016-10-22T11:26:26.881Z,265
2016-10-22T11:27:37.174Z,265
2016-10-22T11:28:47.161Z,260
2016-10-22T11:29:57.443Z,260
2016-10-22T11:31:07.769Z,260
2016-10-22T11:32:17.813Z,260
2016-10-22T11:33:28.149Z,260
2016-10-22T11:34:38.449Z,265
2016-10-22T11:35:48.741Z,265
2016-10-22T11:36:59.053Z,260
2016-10-22T11:38:09.376Z,245
2016-10-22T11:39:19.660Z,240
2016-10-22T11:40:29.656Z,245
2016-10-22T11:41:39.634Z,245
2016-10-22T11:42:49.917Z,255
2016-10-22T11:43:59.902Z,245
2016-10-22T11:45:09.569Z,240
2016-10-22T11:46:19.881Z,235
2016-10-22T11:47:30.158Z,235
2016-10-22T11:48:40.155Z,230
2016-10-22T11:49:50.461Z,230
2016-10-22T11:51:00.757Z,225
2016-10-22T11:52:10.996Z,235
2016-10-22T11:53:21.287Z,235
2016-10-22T11:54:31.573Z,235
2016-10-22T11:55:41.866Z,235
2016-10-22T11:56:52.167Z,230
2016-10-22T11:58:02.460Z,240
2016-10-22T11:59:12.675Z,240
2016-10-22T12:00:22.986Z,245
2016-10-22T12:01:33.279Z,245
2016-10-22T12:02:43.588Z,245
2016-10-22T12:03:53.903Z,245
2016-10-22T12:05:04.207Z,245
2016-10-22T12:06:14.500Z,240
2016-10-22T12:07:24.811Z,245
2016-10-22T12:08:35.108Z,245
2016-10-22T12:09:45.394Z,245
2016-10-22T12:10:55.404Z,245
2016-10-22T12:12:05.707Z,240
2016-10-22T12:13:16.004Z,245
2016-10-22T12:14:26.293Z,250
2016-10-22T12:15:36.598Z,250
2016-10-22T12:16:46.894Z,245
2016-10-22T12:17:57.177Z,245
2016-10-22T12:19:07.468Z,245
2016-10-22T12:20:17.178Z,245
2016-10-22T12:21:27.476Z,240
2016-10-22T12:22:37.776Z,240
2016-10-22T12:23:48.072Z,240
2016-10-22T12:24:58.379Z,240
2016-10-22T12:26:08.672Z,240
2016-10-22T12:27:18.963Z,240
2016-10-22T12:28:29.256Z,235
2016-10-22T12:29:39.552Z,235
2016-10-22T12:30:49.856Z,235
2016-10-22T12:32:00.149Z,235
2016-10-22T12:33:10.424Z,235
2016-10-22T12:34:20.414Z,230
2016-10-22T12:35:30.397Z,230
2016-10-22T12:36:40.707Z,230
2016-10-22T12:37:51.013Z,230
2016-10-22T12:39:01.301Z,225
2016-10-22T12:40:11.287Z,225
2016-10-22T12:41:21.579Z,225
2016-10-22T12:42:31.292Z,220
2016-10-22T12:43:41.598Z,220
2016-10-22T12:44:51.879Z,220
2016-10-22T12:46:02.191Z,220
2016-10-22T12:47:12.483Z,215
2016-10-22T12:48:22.816Z,215
2016-10-22T12:49:33.092Z,210
2016-10-22T12:50:43.404Z,210
2016-10-22T12:51:53.687Z,210
2016-10-22T12:53:03.671Z,210
2016-10-22T12:54:14.147Z,210
2016-10-22T12:55:24.444Z,210
2016-10-22T12:56:34.981Z,205
2016-10-22T12:57:45.283Z,205
2016-10-22T12:58:55.566Z,205
2016-10-22T13:00:05.538Z,200
2016-10-22T13:01:15.859Z,200
2016-10-22T13:02:26.181Z,200
2016-10-22T13:03:36.487Z,195
2016-10-22T13:04:46.183Z,200
2016-10-22T13:05:56.174Z,195
2016-10-22T13:07:06.478Z,195
2016-10-22T13:08:16.759Z,175
2016-10-22T13:09:27.065Z,185
2016-10-22T13:10:37.057Z,120
2016-10-22T13:11:47.040Z,180
2016-10-22T13:12:57.352Z,180
2016-10-22T13:14:07.357Z,175
2016-10-22T13:15:17.634Z,180
2016-10-22T13:16:27.936Z,185
2016-10-22T13:17:38.257Z,195
2016-10-22T13:18:48.552Z,195
2016-10-22T13:19:58.574Z,195
2016-10-22T13:21:08.245Z,190
2016-10-22T13:22:18.548Z,185
2016-10-22T13:23:28.841Z,185
2016-10-22T13:24:38.826Z,185
2016-10-22T13:25:48.817Z,185
2016-10-22T13:26:59.109Z,185
2016-10-22T13:28:09.412Z,185
2016-10-22T13:29:19.709Z,185
2016-10-22T13:30:30.032Z,185
2016-10-22T13:31:39.702Z,180
2016-10-22T13:32:49.699Z,180
2016-10-22T13:33:59.720Z,180
2016-10-22T13:35:10.009Z,175
2016-10-22T13:36:20.295Z,175
2016-10-22T13:37:30.584Z,175
2016-10-22T13:38:40.601Z,175
2016-10-22T13:39:50.904Z,175
2016-10-22T13:41:01.205Z,170
2016-10-22T13:42:11.504Z,170
2016-10-22T13:43:21.810Z,170
2016-10-22T13:44:32.097Z,170
2016-10-22T13:45:42.387Z,170
2016-10-22T13:46:52.679Z,165
2016-10-22T13:48:02.655Z,165
2016-10-22T13:49:12.949Z,165
2016-10-22T13:50:23.260Z,160
2016-10-22T13:51:33.246Z,155
2016-10-22T13:52:43.545Z,155
2016-10-22T13:53:53.871Z,155
2016-10-22T13:55:03.855Z,155
2016-10-22T13:56:14.158Z,155
2016-10-22T13:57:24.459Z,155
2016-10-22T13:58:34.431Z,155
2016-10-22T13:59:44.731Z,155
2016-10-22T14:00:54.709Z,150
2016-10-22T14:02:05.001Z,150
2016-10-22T14:03:15.282Z,150
2016-10-22T14:04:25.254Z,145
2016-10-22T14:05:35.245Z,145
2016-10-22T14:06:45.237Z,145
2016-10-22T14:07:55.563Z,140
2016-10-22T14:09:05.874Z,140
2016-10-22T14:10:16.193Z,135
2016-10-22T14:11:26.189Z,135
2016-10-22T14:12:36.481Z,135
2016-10-22T14:13:46.456Z,130
2016-10-22T14:14:56.749Z,130
2016-10-22T14:16:07.274Z,130
2016-10-22T14:17:17.579Z,130
2016-10-22T14:18:27.893Z,125
2016-10-22T14:19:38.197Z,125
2016-10-22T14:20:48.494Z,120
2016-10-22T14:21:59.419Z,120
2016-10-22T14:23:10.064Z,120
2016-10-22T14:24:20.374Z,115
2016-10-22T14:25:31.551Z,115
2016-10-22T14:26:41.860Z,115
2016-10-22T14:27:52.154Z,110
2016-10-22T14:29:02.469Z,110
2016-10-22T14:30:12.783Z,110
2016-10-22T14:31:23.095Z,105
2016-10-22T14:32:33.084Z,105
2016-10-22T14:33:43.409Z,105
2016-10-22T14:34:53.701Z,100
2016-10-22T14:36:03.987Z,100
2016-10-22T14:37:16.320Z,100
2016-10-22T14:38:26.622Z,95
2016-10-22T14:39:36.629Z,95
2016-10-22T14:40:46.946Z,95
2016-10-22T14:41:57.254Z,90
2016-10-22T14:43:07.546Z,90
2016-10-22T14:44:17.535Z,90
2016-10-22T14:45:27.520Z,90
2016-10-22T14:46:37.526Z,90
2016-10-22T14:47:47.487Z,90
2016-10-22T14:48:57.770Z,85
2016-10-22T14:50:08.065Z,85
2016-10-22T14:51:18.353Z,80
2016-10-22T14:52:28.342Z,80
2016-10-22T14:53:38.324Z,80
2016-10-22T14:54:47.992Z,75
2016-10-22T14:55:58.280Z,75
2016-10-22T14:57:08.574Z,75
2016-10-22T14:58:18.901Z,70
2016-10-22T14:59:28.893Z,70
2016-10-22T15:00:38.572Z,60
2016-10-22T15:01:48.619Z,50
2016-10-22T15:02:58.999Z,50
2016-10-22T15:04:09.341Z,50
2016-10-22T15:05:19.641Z,55
2016-10-22T15:06:29.944Z,55
2016-10-22T15:07:40.234Z,55
2016-10-22T15:08:50.518Z,50
2016-10-22T15:10:00.830Z,50
2016-10-22T15:11:11.120Z,50
2016-10-22T15:12:21.413Z,45
2016-10-22T15:13:31.717Z,45
2016-10-22T15:14:42.017Z,45
2016-10-22T15:15:52.319Z,45
2016-10-22T15:17:02.650Z,45
2016-10-22T15:18:12.927Z,40
2016-10-22T15:19:23.234Z,40
2016-10-22T15:20:33.540Z,40
2016-10-22T15:21:43.327Z,35
2016-10-22T15:22:53.620Z,35
2016-10-22T15:24:03.911Z,30
2016-10-22T15:25:14.212Z,30
2016-10-22T15:26:24.224Z,30
2016-10-22T15:27:34.528Z,25
2016-10-22T15:28:44.556Z,25
2016-10-22T15:29:54.848Z,25
2016-10-22T15:31:05.154Z,20
2016-10-22T15:32:15.435Z,20
2016-10-22T15:33:25.417Z,20
2016-10-22T15:34:35.699Z,15
2016-10-22T15:35:46.029Z,15
2016-10-22T15:36:56.353Z,15
2016-10-22T15:38:06.028Z,15
2016-10-22T15:39:16.335Z,15
2016-10-22T15:40:26.721Z,10
2016-10-22T15:41:36.716Z,10
2016-10-22T15:42:46.685Z,10
2016-10-22T15:43:57.005Z,10
2016-10-22T15:45:07.029Z,10
2016-10-22T15:46:17.011Z,5
2016-10-22T15:47:27.316Z,5
2016-10-22T15:48:37.854Z,5
2016-10-22T15:49:47.845Z,5
2016-10-22T15:50:57.831Z,5
2016-10-22T15:52:08.388Z,5
2016-10-22T15:53:18.676Z,5
2016-10-22T15:54:28.976Z,0
2016-10-22T15:55:38.955Z,0
2016-10-22T15:56:49.247Z,0
2016-10-22T15:57:59.529Z,0
2016-10-22T15:59:09.513Z,0
2016-10-22T16:00:19.505Z,0
2016-10-22T16:01:29.777Z,0
2016-10-22T16:02:39.747Z,0
2016-10-22T16:03:49.735Z,0
2016-10-22T16:04:59.754Z,0
2016-10-22T16:06:10.039Z,0
2016-10-22T16:07:20.371Z,0
2016-10-22T16:08:30.674Z,0
2016-10-22T16:09:40.960Z,0
2016-10-22T16:10:50.942Z,0
2016-10-22T16:12:00.918Z,0
2016-10-22T16:13:11.450Z,0
2016-10-22T16:14:21.426Z,0
2016-10-22T16:15:31.707Z,0
2016-10-22T16:16:41.721Z,0
2016-10-22T16:17:52.020Z,0
2016-10-22T16:19:02.303Z,0
2016-10-22T16:20:12.594Z,0
2016-10-22T16:21:22.899Z,0
2016-10-22T16:22:33.218Z,0
2016-10-22T16:23:43.515Z,0
2016-10-22T16:24:54.038Z,0
2016-10-22T16:26:04.318Z,0
2016-10-22T16:27:14.601Z,0
2016-10-22T16:28:24.878Z,0
2016-10-22T16:29:35.172Z,0
2016-10-22T16:30:45.495Z,0
2016-10-22T16:31:55.157Z,0
2016-10-22T16:33:05.464Z,0
2016-10-22T16:34:15.761Z,0
2016-10-22T16:35:25.745Z,0
2016-10-22T16:36:35.739Z,0
2016-10-22T16:37:46.046Z,0
2016-10-22T16:38:56.348Z,0
2016-10-22T16:40:06.641Z,0
2016-10-22T16:41:16.926Z,0
2016-10-22T16:42:26.936Z,0
2016-10-22T16:43:37.231Z,0
2016-10-22T16:44:47.245Z,0
2016-10-22T16:45:57.527Z,0
2016-10-22T16:47:07.547Z,0
2016-10-22T16:48:17.836Z,0
2016-10-22T16:49:28.122Z,0
2016-10-22T16:50:38.139Z,0
2016-10-22T16:51:48.436Z,0
2016-10-22T16:52:58.735Z,0
2016-10-22T16:54:08.726Z,0
2016-10-22T16:55:18.718Z,0
2016-10-22T16:56:29.004Z,0
2016-10-22T16:57:38.989Z,0
2016-10-22T16:58:49.289Z,0
2016-10-22T16:59:59.572Z,0
2016-10-22T17:01:09.857Z,0
2016-10-22T17:02:19.852Z,0
2016-10-22T17:03:30.140Z,0
2016-10-22T17:04:40.427Z,0
2016-10-22T17:05:50.746Z,0
2016-10-22T17:07:01.038Z,0
2016-10-22T17:08:11.331Z,0
2016-10-22T17:09:21.340Z,0